Time;durP1;ratioP1;P1;durP2;ratioP2;P2;SDS_P1;SDS_P2;PMS_P1;PMS_P2;Temp;Humidity;BMP_temperature;BMP_pressure;BME280_temperature;BME280_humidity;BME280_pressure;Samples;Min_cycle;Max_cycle;Signal;HPM_P1;HPM_P2
2022/03/09 00:00:22;;;;;;;18.77;7.53;;;9.70;86.70;;;;;;5057011;28;20065;-81
2022/03/09 00:02:48;;;;;;;14.93;7.72;;;9.70;86.60;;;;;;5045953;28;20037;-81
2022/03/09 00:05:14;;;;;;;12.95;7.00;;;9.80;86.70;;;;;;5057249;28;20419;-81
2022/03/09 00:07:40;;;;;;;14.10;7.25;;;9.70;86.80;;;;;;5039562;28;20033;-80
2022/03/09 00:10:06;;;;;;;15.23;7.07;;;9.80;86.80;;;;;;5038424;28;20510;-81
2022/03/09 00:12:33;;;;;;;22.85;7.50;;;9.80;86.60;;;;;;5037009;28;20025;-81
2022/03/09 00:14:59;;;;;;;17.23;7.70;;;9.80;86.30;;;;;;5037017;28;20026;-81
2022/03/09 00:17:24;;;;;;;15.68;7.28;;;9.80;86.70;;;;;;5029171;28;20033;-81
2022/03/09 00:19:50;;;;;;;21.38;8.38;;;9.80;86.50;;;;;;5038687;28;20033;-81
2022/03/09 00:22:16;;;;;;;23.17;8.00;;;9.80;86.80;;;;;;5056878;28;20102;-81
2022/03/09 00:24:41;;;;;;;14.57;7.55;;;9.80;86.60;;;;;;5045947;28;20029;-81
2022/03/09 00:27:07;;;;;;;14.63;8.02;;;9.80;86.60;;;;;;5056613;28;20123;-81
2022/03/09 00:29:34;;;;;;;13.77;8.32;;;9.70;86.40;;;;;;5055928;28;20136;-81
2022/03/09 00:31:59;;;;;;;12.32;7.38;;;9.80;86.70;;;;;;5056678;28;20388;-81
2022/03/09 00:34:25;;;;;;;14.98;7.82;;;9.70;86.70;;;;;;5056806;28;20029;-81
2022/03/09 00:36:51;;;;;;;20.70;7.65;;;9.70;86.60;;;;;;5056007;28;20591;-81
2022/03/09 00:39:17;;;;;;;16.00;7.90;;;9.80;86.40;;;;;;5056982;28;20029;-80
2022/03/09 00:41:42;;;;;;;19.90;8.63;;;9.80;86.60;;;;;;5038833;28;20033;-81
2022/03/09 00:44:08;;;;;;;13.38;7.00;;;9.70;86.30;;;;;;5038357;28;20029;-81
2022/03/09 00:46:34;;;;;;;16.85;8.30;;;9.70;86.60;;;;;;5056125;28;20036;-81
2022/03/09 00:49:01;;;;;;;20.63;8.80;;;9.70;87.10;;;;;;5056896;28;20510;-81
2022/03/09 00:51:26;;;;;;;15.88;7.20;;;9.70;86.80;;;;;;5056319;28;20058;-81
2022/03/09 00:53:52;;;;;;;16.60;7.40;;;9.70;86.80;;;;;;5055697;28;20055;-81
2022/03/09 00:56:18;;;;;;;13.20;8.23;;;9.70;86.60;;;;;;5056206;28;20033;-81
2022/03/09 00:58:44;;;;;;;19.38;7.82;;;9.70;86.90;;;;;;5056578;28;20455;-81
2022/03/09 01:01:10;;;;;;;20.90;7.95;;;9.70;86.70;;;;;;5055864;28;20025;-81
2022/03/09 01:03:36;;;;;;;17.30;7.20;;;9.60;86.80;;;;;;5055327;28;20116;-81
2022/03/09 01:06:03;;;;;;;17.13;7.35;;;9.70;86.90;;;;;;5056337;28;20414;-81
2022/03/09 01:08:28;;;;;;;18.00;7.15;;;9.70;86.50;;;;;;5055612;28;20029;-80
2022/03/09 01:10:54;;;;;;;16.80;7.40;;;9.70;86.80;;;;;;5056017;28;20081;-81
2022/03/09 01:13:21;;;;;;;18.92;6.68;;;9.70;86.50;;;;;;5038021;28;20025;-81
2022/03/09 01:15:47;;;;;;;15.18;6.95;;;9.50;87.00;;;;;;5038073;28;20031;-81
2022/03/09 01:18:13;;;;;;;10.07;6.82;;;9.50;87.10;;;;;;5055451;28;20036;-81
2022/03/09 01:20:39;;;;;;;16.80;7.57;;;9.50;87.10;;;;;;5055849;28;20025;-81
2022/03/09 01:23:05;;;;;;;13.65;7.30;;;9.40;87.30;;;;;;5040874;28;20028;-81
2022/03/09 01:25:30;;;;;;;14.00;6.38;;;9.40;87.50;;;;;;5060415;28;20051;-81
2022/03/09 01:27:56;;;;;;;18.38;8.38;;;9.30;87.60;;;;;;5037175;28;20097;-81
2022/03/09 01:30:22;;;;;;;22.65;8.65;;;9.40;87.60;;;;;;5055872;28;20024;-81
2022/03/09 01:32:48;;;;;;;10.50;5.20;;;9.50;87.40;;;;;;5055381;28;20037;-81
2022/03/09 01:35:14;;;;;;;15.65;7.30;;;9.40;87.40;;;;;;5055984;28;20045;-81
2022/03/09 01:37:40;;;;;;;17.98;7.90;;;9.40;87.40;;;;;;5036929;28;20031;-81
2022/03/09 01:40:07;;;;;;;15.90;7.03;;;9.40;87.50;;;;;;5054985;28;20029;-81
2022/03/09 01:42:33;;;;;;;19.30;8.48;;;9.40;87.50;;;;;;5055554;28;20055;-81
2022/03/09 01:45:04;;;;;;;18.17;7.80;;;9.30;87.50;;;;;;5054805;28;20387;-80
2022/03/09 01:47:29;;;;;;;17.88;7.95;;;9.40;87.90;;;;;;5055465;28;20074;-81
2022/03/09 01:49:55;;;;;;;16.38;7.88;;;9.50;87.70;;;;;;5055478;28;20021;-81
2022/03/09 01:52:21;;;;;;;14.30;7.05;;;9.50;87.40;;;;;;5036767;28;20037;-81
2022/03/09 01:54:47;;;;;;;17.15;7.70;;;9.40;87.50;;;;;;5055375;28;20485;-81
2022/03/09 01:57:12;;;;;;;12.32;7.05;;;9.30;87.70;;;;;;5036411;28;20040;-80
2022/03/09 01:59:38;;;;;;;19.17;8.02;;;9.30;87.60;;;;;;5037315;28;20029;-81
2022/03/09 02:02:04;;;;;;;18.48;7.50;;;9.30;87.80;;;;;;5054669;28;20113;-81
2022/03/09 02:04:29;;;;;;;11.45;5.93;;;9.30;87.40;;;;;;5055297;28;20052;-81
2022/03/09 02:06:55;;;;;;;14.93;6.40;;;9.30;87.40;;;;;;5055018;28;20023;-81
2022/03/09 02:12:06;;;;;;;19.08;7.70;;;9.30;87.80;;;;;;5035193;28;20100;-81
2022/03/09 02:14:36;;;;;;;20.00;7.40;;;9.30;87.40;;;;;;5019413;28;20048;-81
2022/03/09 02:17:13;;;;;;;17.15;8.18;;;9.30;87.40;;;;;;5034831;28;20056;-81
2022/03/09 02:19:40;;;;;;;16.52;6.55;;;9.30;87.20;;;;;;5043128;28;20025;-81
2022/03/09 02:22:18;;;;;;;19.88;7.75;;;9.30;87.30;;;;;;5055169;28;20029;-81
2022/03/09 02:24:44;;;;;;;14.85;6.57;;;9.30;87.60;;;;;;5060692;28;20028;-81
2022/03/09 02:27:10;;;;;;;14.10;6.93;;;9.30;87.20;;;;;;5033492;28;20581;-81
2022/03/09 02:29:35;;;;;;;18.27;6.57;;;9.40;87.10;;;;;;5033644;28;20600;-81
2022/03/09 02:32:02;;;;;;;18.13;7.15;;;9.30;87.00;;;;;;5034956;28;20509;-81
2022/03/09 02:34:29;;;;;;;14.95;6.45;;;9.20;87.20;;;;;;5029446;28;20029;-81
2022/03/09 02:36:55;;;;;;;20.70;7.82;;;9.30;87.20;;;;;;5023275;28;20033;-81
2022/03/09 02:39:20;;;;;;;16.77;6.97;;;9.30;87.50;;;;;;5034981;28;20032;-80
2022/03/09 02:41:46;;;;;;;16.95;7.75;;;9.30;87.40;;;;;;5034957;28;20033;-81
2022/03/09 02:44:12;;;;;;;12.18;6.20;;;9.30;87.20;;;;;;5034918;28;20060;-81
2022/03/09 02:46:38;;;;;;;14.15;6.55;;;9.20;87.20;;;;;;5034357;28;20039;-80
2022/03/09 02:49:03;;;;;;;18.70;6.80;;;9.10;87.40;;;;;;5035625;28;20122;-81
2022/03/09 02:51:29;;;;;;;19.08;7.68;;;9.10;87.50;;;;;;5038644;28;20028;-81
2022/03/09 02:53:55;;;;;;;17.67;7.70;;;9.20;87.40;;;;;;5038588;28;20026;-81
2022/03/09 02:56:20;;;;;;;19.10;7.65;;;9.30;87.30;;;;;;5036169;28;20068;-81
2022/03/09 02:58:46;;;;;;;14.48;7.13;;;9.30;87.20;;;;;;5038596;28;20479;-80
2022/03/09 03:01:13;;;;;;;12.27;5.72;;;9.30;86.70;;;;;;5038397;28;20029;-81
2022/03/09 03:03:41;;;;;;;16.05;6.60;;;9.20;86.60;;;;;;5038548;28;20029;-80
2022/03/09 03:06:07;;;;;;;11.13;5.70;;;9.00;86.80;;;;;;5038022;28;20025;-81
2022/03/09 03:08:33;;;;;;;13.38;6.22;;;9.00;87.20;;;;;;5038186;28;20034;-81
2022/03/09 03:11:00;;;;;;;13.02;6.47;;;8.90;87.70;;;;;;5036943;28;20028;-81
2022/03/09 03:13:27;;;;;;;12.07;6.40;;;9.00;87.80;;;;;;5038218;28;20110;-81
2022/03/09 03:15:53;;;;;;;16.15;7.68;;;9.00;87.60;;;;;;5038322;28;20037;-81
2022/03/09 03:18:19;;;;;;;16.35;7.47;;;9.10;87.50;;;;;;5038238;28;20032;-80
2022/03/09 03:20:45;;;;;;;16.92;7.95;;;9.20;87.20;;;;;;5037092;28;20567;-81
2022/03/09 03:23:10;;;;;;;15.75;7.60;;;9.20;87.10;;;;;;5041438;28;20021;-80
2022/03/09 03:25:36;;;;;;;14.23;7.22;;;9.20;87.40;;;;;;5057670;28;20033;-80
2022/03/09 03:28:02;;;;;;;13.38;6.13;;;9.20;87.10;;;;;;5046240;28;20129;-80
2022/03/09 03:30:27;;;;;;;17.67;6.45;;;9.10;87.00;;;;;;5018699;28;20486;-80
2022/03/09 03:32:53;;;;;;;13.07;7.05;;;9.20;87.10;;;;;;5033735;28;20022;-80
2022/03/09 03:35:19;;;;;;;13.02;6.75;;;9.00;87.10;;;;;;5034840;28;20116;-81
2022/03/09 03:37:44;;;;;;;12.10;6.60;;;9.10;87.20;;;;;;5036560;28;20026;-80
2022/03/09 03:40:10;;;;;;;14.30;7.13;;;9.00;87.70;;;;;;5036668;28;20051;-80
2022/03/09 03:42:36;;;;;;;10.48;4.95;;;9.10;87.60;;;;;;5037565;28;20108;-80
2022/03/09 03:45:02;;;;;;;14.95;5.95;;;9.00;87.20;;;;;;5036493;28;20065;-80
2022/03/09 03:47:27;;;;;;;11.48;6.22;;;9.10;87.80;;;;;;5036701;28;20122;-80
2022/03/09 03:49:53;;;;;;;13.18;6.05;;;9.10;87.30;;;;;;5037752;28;20026;-80
2022/03/09 03:52:19;;;;;;;13.13;6.47;;;9.20;87.50;;;;;;5037362;28;20096;-80
2022/03/09 03:54:45;;;;;;;11.65;5.15;;;9.10;87.60;;;;;;5036725;28;20029;-80
2022/03/09 03:57:10;;;;;;;14.02;5.68;;;9.10;87.60;;;;;;5037397;28;20391;-81
2022/03/09 03:59:36;;;;;;;9.82;5.13;;;9.10;87.90;;;;;;5036972;28;20033;-80
2022/03/09 04:02:02;;;;;;;12.70;5.63;;;9.00;88.00;;;;;;5036803;28;20036;-80
2022/03/09 04:04:28;;;;;;;13.80;5.05;;;9.00;88.10;;;;;;5037600;28;20037;-80
2022/03/09 04:06:53;;;;;;;13.25;5.20;;;9.10;88.20;;;;;;5037385;28;20031;-80
2022/03/09 04:09:19;;;;;;;12.93;4.78;;;9.10;88.00;;;;;;5037028;28;20021;-80
2022/03/09 04:11:45;;;;;;;14.40;5.97;;;9.10;88.30;;;;;;5037234;28;20041;-80
2022/03/09 04:14:11;;;;;;;16.50;5.80;;;9.10;88.10;;;;;;5036669;28;20018;-80
2022/03/09 04:16:36;;;;;;;11.55;6.05;;;9.20;88.40;;;;;;5037471;28;20038;-80
2022/03/09 04:19:02;;;;;;;13.57;5.68;;;9.00;88.20;;;;;;5035589;28;20140;-80
2022/03/09 04:21:28;;;;;;;13.05;5.82;;;9.00;88.80;;;;;;5036578;28;20071;-81
2022/03/09 04:23:54;;;;;;;12.23;5.70;;;9.10;88.80;;;;;;5046502;28;20065;-80
2022/03/09 04:26:19;;;;;;;14.25;6.40;;;9.10;88.60;;;;;;5056940;28;20388;-81
2022/03/09 04:28:45;;;;;;;12.90;6.05;;;9.10;88.40;;;;;;5059081;28;20055;-80
2022/03/09 04:31:11;;;;;;;14.23;6.03;;;9.10;88.90;;;;;;5056313;28;20025;-80
2022/03/09 04:33:36;;;;;;;19.77;6.95;;;9.10;88.60;;;;;;5036757;28;20026;-80
2022/03/09 04:36:03;;;;;;;17.38;5.63;;;9.20;88.80;;;;;;5019053;28;20053;-81
2022/03/09 04:38:29;;;;;;;16.20;5.68;;;9.20;88.50;;;;;;5036748;28;20499;-80
2022/03/09 04:40:54;;;;;;;16.88;6.05;;;9.20;88.30;;;;;;5035498;28;20083;-80
2022/03/09 04:43:20;;;;;;;10.48;5.90;;;9.20;88.30;;;;;;5035645;28;20025;-80
2022/03/09 04:45:46;;;;;;;16.02;5.75;;;9.30;88.20;;;;;;5037877;28;20120;-80
2022/03/09 04:48:11;;;;;;;9.32;4.10;;;9.20;88.00;;;;;;5038867;28;20106;-80
2022/03/09 04:50:37;;;;;;;11.02;5.15;;;9.10;88.40;;;;;;5038282;28;20387;-81
2022/03/09 04:53:03;;;;;;;10.45;4.43;;;9.20;88.60;;;;;;5038015;28;20202;-80
2022/03/09 04:55:28;;;;;;;10.30;4.22;;;9.20;88.30;;;;;;5037186;28;20033;-80
2022/03/09 04:57:54;;;;;;;10.65;4.53;;;9.10;88.40;;;;;;5038608;28;20029;-80
2022/03/09 05:00:20;;;;;;;12.20;5.30;;;9.20;88.80;;;;;;5038675;28;20032;-80
2022/03/09 05:02:46;;;;;;;10.73;4.45;;;9.20;88.60;;;;;;5037558;28;20025;-80
2022/03/09 05:05:12;;;;;;;13.55;4.75;;;9.20;88.50;;;;;;5055762;28;20056;-80
2022/03/09 05:07:41;;;;;;;10.60;4.35;;;9.20;88.50;;;;;;5056169;28;20021;-80
2022/03/09 05:10:08;;;;;;;11.05;5.43;;;9.20;88.60;;;;;;5055679;28;20021;-80
2022/03/09 05:12:34;;;;;;;17.00;5.35;;;9.20;88.80;;;;;;5037059;28;20021;-81
2022/03/09 05:15:00;;;;;;;11.75;4.65;;;9.10;88.70;;;;;;5055472;28;20044;-81
2022/03/09 05:17:25;;;;;;;14.15;5.97;;;9.20;88.70;;;;;;5055995;28;20063;-81
2022/03/09 05:19:51;;;;;;;11.55;5.03;;;9.20;88.50;;;;;;5055891;28;20073;-81
2022/03/09 05:22:16;;;;;;;13.15;5.10;;;9.10;88.50;;;;;;5055476;28;20068;-80
2022/03/09 05:24:42;;;;;;;11.30;4.78;;;9.10;88.70;;;;;;5072220;28;20036;-81
2022/03/09 05:27:08;;;;;;;11.27;5.63;;;9.10;88.50;;;;;;5066825;28;20041;-80
2022/03/09 05:29:34;;;;;;;20.13;5.45;;;9.20;88.30;;;;;;5055467;28;20021;-80
2022/03/09 05:31:59;;;;;;;14.43;4.50;;;9.20;88.50;;;;;;5055688;28;20025;-80
2022/03/09 05:34:25;;;;;;;12.40;5.07;;;9.20;88.20;;;;;;5055668;28;20080;-80
2022/03/09 05:36:51;;;;;;;12.98;4.68;;;9.10;88.50;;;;;;5054991;28;20036;-80
2022/03/09 05:39:16;;;;;;;8.32;4.35;;;9.10;88.60;;;;;;5055578;28;20074;-80
2022/03/09 05:41:42;;;;;;;9.40;4.70;;;9.20;88.50;;;;;;5055449;28;20104;-80
2022/03/09 05:44:08;;;;;;;10.55;4.93;;;9.10;88.30;;;;;;5055036;28;20059;-80
2022/03/09 05:46:34;;;;;;;12.10;5.00;;;9.20;88.40;;;;;;5037512;28;20701;-80
2022/03/09 05:49:01;;;;;;;12.40;4.03;;;9.20;88.30;;;;;;5050158;28;20040;-80
2022/03/09 05:51:27;;;;;;;12.93;5.35;;;9.30;88.20;;;;;;5055377;28;20032;-86
2022/03/09 05:53:53;;;;;;;9.68;4.60;;;9.30;87.80;;;;;;5054914;28;20025;-81
2022/03/09 05:56:19;;;;;;;7.32;3.90;;;9.30;88.20;;;;;;5056145;28;20048;-91
2022/03/09 05:58:44;;;;;;;13.43;4.32;;;9.20;87.90;;;;;;5038574;28;20112;-85
2022/03/09 06:01:10;;;;;;;13.63;4.50;;;9.30;87.90;;;;;;5055593;28;20485;-86
2022/03/09 06:03:36;;;;;;;14.00;4.18;;;9.30;87.80;;;;;;5031269;28;20114;-85
2022/03/09 06:06:01;;;;;;;12.88;4.63;;;9.40;87.40;;;;;;5054837;28;20488;-82
2022/03/09 06:08:27;;;;;;;9.90;4.00;;;9.40;87.30;;;;;;5037715;28;20033;-81
2022/03/09 06:10:53;;;;;;;14.52;4.57;;;9.40;87.00;;;;;;5036517;28;20083;-80
2022/03/09 06:13:18;;;;;;;13.75;5.15;;;9.40;87.10;;;;;;5054902;28;20020;-87
2022/03/09 06:15:44;;;;;;;9.25;4.18;;;9.30;87.20;;;;;;5055504;28;20114;-89
2022/03/09 06:18:10;;;;;;;9.48;3.88;;;9.40;87.10;;;;;;5046674;28;20021;-81
2022/03/09 06:20:36;;;;;;;9.45;3.45;;;9.40;87.00;;;;;;5044484;28;20456;-81
2022/03/09 06:23:02;;;;;;;11.00;4.13;;;9.40;86.70;;;;;;5037189;28;20026;-82
2022/03/09 06:25:28;;;;;;;11.68;4.57;;;9.40;86.70;;;;;;5045681;28;20090;-82
2022/03/09 06:27:54;;;;;;;11.95;4.97;;;9.50;86.60;;;;;;5028122;28;20149;-82
2022/03/09 06:30:20;;;;;;;12.32;3.95;;;9.50;86.60;;;;;;5022895;28;20392;-82
2022/03/09 06:32:47;;;;;;;6.47;3.70;;;9.40;86.80;;;;;;5054816;28;20164;-82
2022/03/09 06:35:14;;;;;;;10.93;4.53;;;9.40;86.70;;;;;;5035217;28;20033;-82
2022/03/09 06:37:41;;;;;;;11.20;4.57;;;9.50;86.70;;;;;;5042750;28;20467;-82
2022/03/09 06:40:08;;;;;;;7.90;3.42;;;9.50;86.40;;;;;;5022227;28;20044;-76
2022/03/09 06:42:34;;;;;;;7.35;4.18;;;9.40;86.40;;;;;;5044576;28;20034;-75
2022/03/09 06:45:00;;;;;;;9.60;4.07;;;9.40;86.70;;;;;;5034672;28;20029;-76
2022/03/09 06:47:26;;;;;;;10.57;4.18;;;9.30;86.50;;;;;;5021648;28;20037;-76
2022/03/09 06:49:52;;;;;;;16.50;4.15;;;9.40;86.40;;;;;;5045644;28;20029;-76
2022/03/09 06:52:18;;;;;;;10.90;3.83;;;9.50;86.50;;;;;;5054893;28;20127;-76
2022/03/09 06:54:44;;;;;;;9.57;4.20;;;9.40;86.50;;;;;;5035061;28;20061;-75
2022/03/09 06:57:10;;;;;;;7.57;3.78;;;9.40;86.40;;;;;;5046490;28;20029;-76
2022/03/09 06:59:37;;;;;;;7.47;3.70;;;9.40;86.40;;;;;;5042671;28;20786;-76
2022/03/09 07:02:04;;;;;;;10.55;3.47;;;9.40;86.10;;;;;;5029440;28;20028;-75
2022/03/09 07:04:30;;;;;;;5.78;2.95;;;9.30;86.30;;;;;;5045899;28;20030;-77
2022/03/09 07:06:55;;;;;;;8.65;3.55;;;9.40;86.10;;;;;;5038633;28;20036;-76
2022/03/09 07:09:21;;;;;;;7.95;3.00;;;9.50;86.40;;;;;;5053494;28;20047;-76
2022/03/09 07:11:47;;;;;;;12.57;3.92;;;9.50;85.70;;;;;;5054678;28;20036;-77
2022/03/09 07:14:12;;;;;;;17.55;4.32;;;9.60;85.90;;;;;;5036767;28;20021;-77
2022/03/09 07:16:38;;;;;;;10.65;3.90;;;9.50;86.00;;;;;;5053718;28;20391;-77
2022/03/09 07:19:04;;;;;;;9.05;3.15;;;9.50;85.70;;;;;;5042904;28;20060;-77
2022/03/09 07:21:30;;;;;;;6.38;3.40;;;9.50;85.60;;;;;;5027479;28;20033;-77
2022/03/09 07:23:55;;;;;;;10.63;4.30;;;9.60;85.60;;;;;;5050880;28;20525;-76
2022/03/09 07:26:21;;;;;;;7.93;3.83;;;9.60;85.80;;;;;;5043423;28;20037;-77
2022/03/09 07:28:47;;;;;;;8.57;3.63;;;9.50;85.20;;;;;;5045707;28;20052;-77
2022/03/09 07:31:12;;;;;;;8.50;4.55;;;9.60;85.30;;;;;;5028114;28;20025;-76
2022/03/09 07:33:38;;;;;;;7.20;3.67;;;9.70;85.60;;;;;;5045213;28;20017;-77
2022/03/09 07:36:05;;;;;;;5.25;3.17;;;9.70;85.50;;;;;;5040461;28;20031;-77
2022/03/09 07:38:30;;;;;;;9.27;3.30;;;9.70;85.50;;;;;;5045261;28;20521;-76
2022/03/09 07:40:56;;;;;;;14.60;4.68;;;9.80;85.20;;;;;;5043591;28;20026;-77
2022/03/09 07:43:22;;;;;;;7.95;3.38;;;9.70;85.10;;;;;;5038669;28;20037;-76
2022/03/09 07:45:48;;;;;;;8.25;3.92;;;9.80;85.10;;;;;;5029251;28;20053;-77
2022/03/09 07:48:14;;;;;;;13.27;3.33;;;9.80;84.90;;;;;;5053531;28;20064;-77
2022/03/09 07:50:40;;;;;;;7.00;2.97;;;9.90;84.70;;;;;;5056305;28;20028;-77
2022/03/09 07:53:07;;;;;;;7.50;3.22;;;9.90;84.30;;;;;;5057369;28;20029;-77
2022/03/09 07:55:33;;;;;;;6.10;3.00;;;9.80;84.30;;;;;;5050453;28;20373;-77
2022/03/09 07:57:59;;;;;;;6.93;2.78;;;9.90;84.60;;;;;;5041628;28;20040;-77
2022/03/09 08:00:25;;;;;;;7.85;2.90;;;9.80;84.10;;;;;;5057284;28;20475;-77
2022/03/09 08:02:50;;;;;;;6.75;2.90;;;9.90;84.20;;;;;;5057498;28;20831;-77
2022/03/09 08:05:16;;;;;;;5.93;2.35;;;10.00;83.70;;;;;;5056500;28;20029;-77
2022/03/09 08:07:43;;;;;;;6.43;2.60;;;10.00;83.50;;;;;;5056410;28;20044;-77
2022/03/09 08:10:10;;;;;;;7.88;3.40;;;9.90;83.50;;;;;;5056841;28;20024;-77
2022/03/09 08:12:36;;;;;;;6.03;2.53;;;10.70;82.80;;;;;;5039487;28;20028;-77
2022/03/09 08:15:03;;;;;;;10.10;3.13;;;10.60;81.30;;;;;;5019206;28;20511;-77
2022/03/09 08:17:29;;;;;;;7.85;3.20;;;10.50;81.80;;;;;;5051348;28;20115;-77
2022/03/09 08:19:55;;;;;;;6.13;3.17;;;10.60;81.90;;;;;;5055653;28;20063;-77
2022/03/09 08:22:21;;;;;;;9.48;3.22;;;10.50;81.80;;;;;;5057129;28;20075;-77
2022/03/09 08:24:47;;;;;;;11.85;3.55;;;10.60;82.20;;;;;;5074230;28;20063;-77
2022/03/09 08:27:13;;;;;;;7.18;3.00;;;10.70;81.90;;;;;;5052702;28;20054;-77
2022/03/09 08:29:39;;;;;;;5.95;2.25;;;10.80;81.20;;;;;;5027083;28;20025;-77
2022/03/09 08:32:05;;;;;;;4.47;1.95;;;10.50;80.40;;;;;;5050126;28;20021;-77
2022/03/09 08:34:31;;;;;;;4.90;2.05;;;10.40;80.40;;;;;;5041251;28;20022;-77
2022/03/09 08:36:56;;;;;;;3.90;1.70;;;10.60;80.30;;;;;;5045412;28;20110;-77
2022/03/09 08:39:22;;;;;;;8.07;1.83;;;10.60;78.90;;;;;;5060695;28;20025;-77
2022/03/09 08:41:48;;;;;;;5.78;2.00;;;10.80;79.30;;;;;;5022566;28;20969;-77
2022/03/09 08:44:15;;;;;;;5.25;1.77;;;11.00;77.40;;;;;;5037724;28;20025;-77
2022/03/09 08:46:40;;;;;;;7.28;2.13;;;11.40;75.90;;;;;;5053265;28;20033;-77
2022/03/09 08:49:06;;;;;;;4.10;1.85;;;13.10;72.10;;;;;;5055883;28;20091;-77
2022/03/09 08:51:32;;;;;;;5.65;2.08;;;13.70;68.70;;;;;;5055940;28;20029;-77
2022/03/09 08:53:57;;;;;;;4.28;2.30;;;13.00;69.00;;;;;;5056643;28;20048;-78
2022/03/09 08:56:23;;;;;;;4.80;2.20;;;12.90;69.40;;;;;;5037786;28;20025;-78
2022/03/09 08:58:49;;;;;;;4.10;2.25;;;12.30;71.80;;;;;;5056590;28;20021;-78
2022/03/09 09:01:15;;;;;;;5.13;1.90;;;14.30;67.00;;;;;;5056411;28;20043;-78
2022/03/09 09:03:40;;;;;;;6.80;2.63;;;13.50;67.80;;;;;;5036989;28;20032;-78
2022/03/09 09:06:06;;;;;;;5.85;2.38;;;13.50;67.80;;;;;;5055962;28;20048;-77
2022/03/09 09:08:32;;;;;;;8.13;1.98;;;12.80;69.40;;;;;;5056202;28;20029;-77
2022/03/09 09:10:57;;;;;;;5.03;2.13;;;12.20;71.30;;;;;;5050268;28;20028;-78
2022/03/09 09:13:23;;;;;;;8.43;4.38;;;12.10;70.90;;;;;;5046443;28;20014;-77
2022/03/09 09:15:49;;;;;;;4.38;1.65;;;13.40;68.00;;;;;;5046699;28;20037;-77
2022/03/09 09:18:15;;;;;;;8.43;2.08;;;12.90;68.10;;;;;;5029632;28;20507;-78
2022/03/09 09:20:41;;;;;;;5.63;2.78;;;12.60;68.10;;;;;;5047242;28;20061;-78
2022/03/09 09:23:07;;;;;;;9.93;2.97;;;14.10;64.80;;;;;;5047747;28;20029;-78
2022/03/09 09:25:33;;;;;;;5.47;2.00;;;13.70;64.00;;;;;;5046788;28;20029;-78
2022/03/09 09:27:59;;;;;;;3.08;1.67;;;13.30;66.10;;;;;;5045348;28;20109;-77
2022/03/09 09:30:32;;;;;;;6.20;2.20;;;12.90;66.50;;;;;;5046132;28;20606;-77
2022/03/09 09:32:58;;;;;;;5.05;2.53;;;12.80;66.90;;;;;;5051168;28;20025;-78
2022/03/09 09:35:24;;;;;;;7.82;2.60;;;12.60;68.30;;;;;;5055685;28;20029;-78
2022/03/09 09:37:50;;;;;;;7.18;2.85;;;12.30;69.60;;;;;;5055619;28;20064;-77
2022/03/09 09:40:16;;;;;;;7.38;2.38;;;12.50;69.20;;;;;;5054635;28;20033;-78
2022/03/09 09:42:43;;;;;;;4.47;2.60;;;12.40;69.60;;;;;;5055904;28;20104;-78
2022/03/09 09:45:09;;;;;;;6.28;2.40;;;12.40;70.00;;;;;;5054772;28;20032;-77
2022/03/09 09:47:36;;;;;;;4.75;2.60;;;12.90;68.70;;;;;;5055465;28;20395;-77
2022/03/09 09:50:05;;;;;;;6.85;3.00;;;12.90;69.30;;;;;;5055656;28;20032;-78
2022/03/09 09:52:33;;;;;;;10.32;3.35;;;12.80;69.70;;;;;;5036960;28;20025;-77
2022/03/09 09:55:00;;;;;;;9.18;3.50;;;12.80;69.90;;;;;;5055561;28;20033;-78
2022/03/09 09:57:28;;;;;;;5.97;2.67;;;13.80;66.10;;;;;;5054428;28;20020;-78
2022/03/09 09:59:54;;;;;;;7.65;3.63;;;13.40;66.00;;;;;;5055005;28;20052;-78
2022/03/09 10:02:20;;;;;;;5.47;3.53;;;13.80;66.00;;;;;;5037274;28;20087;-77
2022/03/09 10:04:47;;;;;;;6.68;2.50;;;14.50;62.70;;;;;;5054797;28;20491;-77
2022/03/09 10:07:13;;;;;;;6.00;2.55;;;14.60;62.00;;;;;;5055126;28;20036;-77
2022/03/09 10:09:41;;;;;;;6.13;3.10;;;14.10;64.10;;;;;;5055312;28;20033;-78
2022/03/09 10:12:09;;;;;;;5.85;3.25;;;13.50;65.80;;;;;;5054794;28;20402;-77
2022/03/09 10:14:47;;;;;;;6.72;3.08;;;13.60;65.80;;;;;;5054539;28;20490;-77
2022/03/09 10:17:34;;;;;;;5.97;4.00;;;13.40;66.70;;;;;;5054456;28;20016;-78
2022/03/09 10:20:11;;;;;;;7.07;2.80;;;13.50;66.00;;;;;;5036244;28;20029;-77
2022/03/09 10:22:47;;;;;;;6.78;2.80;;;13.80;65.50;;;;;;5055079;28;20014;-78
2022/03/09 10:25:13;;;;;;;7.65;3.28;;;13.80;65.40;;;;;;5049402;28;20049;-77
2022/03/09 10:27:53;;;;;;;7.00;3.45;;;13.80;65.50;;;;;;5020680;28;20077;-77
2022/03/09 10:30:20;;;;;;;;;;;13.90;65.40;;;;;;5048595;28;20031;-77
2022/03/09 10:32:57;;;;;;;7.72;2.58;;;13.70;65.90;;;;;;5054215;28;19948;-78
2022/03/09 10:35:27;;;;;;;4.80;2.40;;;13.70;66.30;;;;;;5054604;28;20023;-77
2022/03/09 10:37:53;;;;;;;5.85;3.05;;;13.70;65.90;;;;;;5054285;28;20029;-78
2022/03/09 10:40:21;;;;;;;5.88;2.83;;;13.40;66.80;;;;;;5054742;28;20039;-78
2022/03/09 10:42:48;;;;;;;6.78;3.00;;;13.30;67.00;;;;;;5054626;28;20032;-77
2022/03/09 10:45:17;;;;;;;5.63;2.70;;;13.20;68.30;;;;;;5054195;28;20056;-78
2022/03/09 10:47:49;;;;;;;7.03;2.70;;;13.30;68.00;;;;;;5034577;28;20078;-78
2022/03/09 10:50:30;;;;;;;7.10;2.88;;;13.30;67.10;;;;;;5048153;28;20025;-78
2022/03/09 10:53:06;;;;;;;13.65;3.53;;;13.00;67.60;;;;;;5054390;28;20100;-77
2022/03/09 10:55:35;;;;;;;11.80;3.67;;;13.20;68.40;;;;;;5050798;28;20021;-77
2022/03/09 10:58:14;;;;;;;7.75;2.60;;;13.30;68.50;;;;;;5031698;28;20577;-78
2022/03/09 11:00:53;;;;;;;6.53;2.38;;;13.50;67.20;;;;;;5034749;28;20048;-77
2022/03/09 11:03:20;;;;;;;10.10;3.35;;;13.60;67.40;;;;;;5035936;28;20029;-77
2022/03/09 11:06:03;;;;;;;7.45;3.55;;;13.70;67.70;;;;;;5052391;28;20032;-77
2022/03/09 11:08:34;;;;;;;5.93;2.83;;;13.80;66.90;;;;;;5053640;28;20235;-77
2022/03/09 11:11:02;;;;;;;7.22;3.85;;;13.80;67.30;;;;;;5055749;28;20025;-77
2022/03/09 11:13:30;;;;;;;10.35;3.08;;;13.70;67.20;;;;;;5058514;28;20029;-77
2022/03/09 11:15:56;;;;;;;7.68;3.00;;;13.40;68.70;;;;;;5057057;28;20032;-77
2022/03/09 11:18:25;;;;;;;7.97;3.05;;;13.50;68.10;;;;;;5057715;28;20086;-77
2022/03/09 11:20:53;;;;;;;9.98;3.75;;;13.30;67.80;;;;;;5057749;28;20024;-77
2022/03/09 11:23:20;;;;;;;8.60;3.50;;;13.30;68.50;;;;;;5062212;28;20074;-77
2022/03/09 11:25:51;;;;;;;8.18;3.83;;;13.20;69.00;;;;;;5078104;28;20118;-78
2022/03/09 11:28:25;;;;;;;5.90;2.80;;;13.20;68.30;;;;;;5077640;28;20055;-78
2022/03/09 11:31:02;;;;;;;7.28;3.15;;;13.30;68.20;;;;;;5060894;28;20043;-78
2022/03/09 11:33:51;;;;;;;9.85;2.60;;;13.30;68.20;;;;;;5039656;28;20029;-78
2022/03/09 11:36:37;;;;;;;7.18;3.22;;;13.70;67.50;;;;;;5037984;28;20585;-78
2022/03/09 11:39:05;;;;;;;8.35;3.35;;;13.90;67.10;;;;;;5038054;28;20032;-77
2022/03/09 11:41:39;;;;;;;9.32;3.33;;;14.20;66.30;;;;;;5051720;28;20064;-78
2022/03/09 11:44:20;;;;;;;6.55;3.30;;;13.80;64.80;;;;;;5039925;28;20037;-78
2022/03/09 11:47:00;;;;;;;9.57;3.28;;;14.00;66.10;;;;;;5057160;28;20029;-78
2022/03/09 11:49:49;;;;;;;6.68;3.38;;;14.30;64.80;;;;;;5057663;28;20032;-77
2022/03/09 11:52:16;;;;;;;7.55;3.10;;;14.40;64.70;;;;;;5038681;28;20029;-78
2022/03/09 11:54:42;;;;;;;15.90;3.45;;;14.40;62.70;;;;;;5057804;28;20543;-78
2022/03/09 11:57:08;;;;;;;5.85;2.90;;;14.70;62.90;;;;;;5057377;28;20024;-77
2022/03/09 11:59:34;;;;;;;8.35;3.47;;;14.70;63.30;;;;;;5057103;28;20479;-78
2022/03/09 12:02:07;;;;;;;7.25;2.83;;;14.70;61.40;;;;;;5057160;28;20029;-78
2022/03/09 12:07:33;;;;;;;5.65;2.08;;;14.70;61.70;;;;;;5057502;28;20028;-77
2022/03/09 12:10:09;;;;;;;6.13;2.10;;;14.70;60.20;;;;;;5056962;28;20506;-77
2022/03/09 12:12:37;;;;;;;3.63;1.40;;;14.80;60.00;;;;;;5057151;28;20024;-78
2022/03/09 12:15:07;;;;;;;4.50;1.83;;;14.70;56.50;;;;;;5057402;28;20108;-77
2022/03/09 12:17:43;;;;;;;3.50;1.17;;;14.60;57.30;;;;;;5038569;28;20169;-78
2022/03/09 12:20:29;;;;;;;4.55;1.35;;;14.60;56.50;;;;;;5057451;28;20029;-78
2022/03/09 12:22:59;;;;;;;3.72;1.60;;;14.50;56.30;;;;;;5058329;28;20061;-78
2022/03/09 12:25:44;;;;;;;11.30;1.48;;;14.60;56.10;;;;;;5060156;28;20071;-78
2022/03/09 12:28:25;;;;;;;3.60;1.35;;;14.80;55.40;;;;;;5056474;28;20049;-79
2022/03/09 12:30:53;;;;;;;3.97;1.35;;;14.80;55.00;;;;;;5056795;28;20022;-78
2022/03/09 12:33:25;;;;;;;2.95;1.20;;;14.90;54.40;;;;;;5056136;28;20037;-78
2022/03/09 12:36:05;;;;;;;3.25;1.20;;;14.90;54.60;;;;;;5038639;28;20035;-78
2022/03/09 12:38:39;;;;;;;2.67;1.10;;;15.10;54.00;;;;;;5056229;28;20045;-78
2022/03/09 12:41:05;;;;;;;2.05;1.20;;;15.20;53.60;;;;;;5056440;28;20052;-78
2022/03/09 12:43:48;;;;;;;3.53;1.58;;;15.30;53.30;;;;;;5056195;28;20044;-79
2022/03/09 12:46:13;;;;;;;3.05;1.75;;;15.30;52.50;;;;;;5055808;28;20057;-79
2022/03/09 12:48:39;;;;;;;4.78;0.90;;;15.40;52.80;;;;;;5038483;28;20064;-79
2022/03/09 12:51:06;;;;;;;4.88;1.00;;;15.60;52.00;;;;;;5056651;28;20066;-79
2022/03/09 12:53:32;;;;;;;4.80;1.00;;;15.50;51.80;;;;;;5037189;28;20024;-78